Time;durP1;ratioP1;P1;durP2;ratioP2;P2;SDS_P1;SDS_P2;PMS_P1;PMS_P2;Temp;Humidity;BMP_temperature;BMP_pressure;BME280_temperature;BME280_humidity;BME280_pressure;Samples;Min_cycle;Max_cycle;Signal;HPM_P1;HPM_P2
2023/03/05 00:01:40;;;;;;;26.90;17.00;;;;;;;1.99;100.00;98893.81;105641;1256;61535;-55
2023/03/05 00:04:12;;;;;;;26.10;17.60;;;;;;;1.97;100.00;98900.40;105945;1254;74646;-54
2023/03/05 00:06:43;;;;;;;28.20;17.40;;;;;;;1.95;100.00;98889.13;105624;1254;68604;-53
2023/03/05 00:09:11;;;;;;;27.60;16.90;;;;;;;1.94;100.00;98887.11;105829;1254;74539;-54
2023/03/05 00:11:41;;;;;;;29.30;18.70;;;;;;;1.96;100.00;98888.11;105773;1255;61742;-54
2023/03/05 00:14:09;;;;;;;26.70;18.00;;;;;;;1.97;100.00;98889.61;105589;1254;62201;-54
2023/03/05 00:16:38;;;;;;;25.90;17.90;;;;;;;1.98;100.00;98889.91;105682;1254;73532;-55
2023/03/05 00:19:11;;;;;;;26.20;18.30;;;;;;;1.98;100.00;98891.92;105663;1260;67469;-54
2023/03/05 00:21:40;;;;;;;27.10;19.10;;;;;;;1.98;100.00;98894.86;105810;1260;73083;-55
2023/03/05 00:24:13;;;;;;;27.90;18.50;;;;;;;1.98;100.00;98897.39;105669;1260;61678;-55
2023/03/05 00:26:43;;;;;;;32.50;18.80;;;;;;;1.99;100.00;98897.33;105621;1254;61644;-54
2023/03/05 00:29:17;;;;;;;28.10;19.40;;;;;;;1.99;100.00;98902.39;105671;1260;74663;-54
2023/03/05 00:31:47;;;;;;;27.10;18.20;;;;;;;2.00;100.00;98902.48;105693;1260;68075;-56
2023/03/05 00:34:16;;;;;;;28.90;20.00;;;;;;;2.00;100.00;98903.31;105820;1254;73694;-55
2023/03/05 00:36:48;;;;;;;31.90;20.60;;;;;;;2.00;100.00;98903.47;105636;1260;61642;-55
2023/03/05 00:39:18;;;;;;;;;;;;;;;2.01;100.00;98904.09;105570;1254;61608;-55
2023/03/05 00:41:47;;;;;;;30.80;19.90;;;;;;;2.00;100.00;98907.77;105844;1254;73948;-56
2023/03/05 00:44:15;;;;;;;32.30;21.40;;;;;;;2.00;100.00;98903.52;105669;1254;68373;-54
2023/03/05 00:46:45;;;;;;;31.30;20.90;;;;;;;2.04;100.00;98904.92;105907;1254;74260;-54
2023/03/05 00:49:13;;;;;;;32.50;21.80;;;;;;;2.03;100.00;98904.16;105470;1254;61494;-56
2023/03/05 00:51:43;;;;;;;36.40;21.20;;;;;;;2.01;100.00;98902.58;105968;1260;60099;-56
2023/03/05 00:54:12;;;;;;;34.70;22.70;;;;;;;2.00;100.00;98901.94;105580;1258;73865;-55
2023/03/05 00:56:42;;;;;;;30.90;21.20;;;;;;;2.01;100.00;98906.31;105701;1259;68297;-54
2023/03/05 00:59:10;;;;;;;34.90;23.40;;;;;;;2.04;100.00;98910.45;105725;1254;73204;-54
2023/03/05 01:01:41;;;;;;;35.80;23.30;;;;;;;2.04;100.00;98908.17;105982;1258;61415;-57
2023/03/05 01:04:10;;;;;;;36.70;22.90;;;;;;;2.04;100.00;98911.61;105685;1260;60489;-55
2023/03/05 01:06:43;;;;;;;33.90;23.80;;;;;;;2.06;100.00;98910.58;105645;1254;74515;-55
2023/03/05 01:09:14;;;;;;;34.80;22.10;;;;;;;2.07;100.00;98913.56;105562;1254;68711;-54
2023/03/05 01:11:43;;;;;;;34.40;22.60;;;;;;;2.06;100.00;98914.89;105846;1259;73442;-53
2023/03/05 01:14:14;;;;;;;35.80;23.20;;;;;;;2.06;100.00;98916.92;105663;1258;62287;-53
2023/03/05 01:16:43;;;;;;;35.10;24.10;;;;;;;2.08;100.00;98911.71;105589;1260;61902;-55
2023/03/05 01:19:13;;;;;;;36.70;23.10;;;;;;;2.11;100.00;98915.20;105739;1259;74589;-55
2023/03/05 01:21:41;;;;;;;36.10;24.80;;;;;;;2.08;100.00;98927.70;106057;1257;67693;-57
2023/03/05 01:24:14;;;;;;;38.60;24.50;;;;;;;2.06;100.00;98924.48;105944;1251;74906;-55
2023/03/05 01:26:43;;;;;;;36.60;24.00;;;;;;;2.06;100.00;98927.86;105961;1257;61678;-55
2023/03/05 01:29:12;;;;;;;35.30;22.80;;;;;;;2.05;100.00;98926.55;105880;1255;61045;-55
2023/03/05 01:31:42;;;;;;;34.40;22.80;;;;;;;2.05;100.00;98923.69;106217;1252;73651;-57
2023/03/05 01:34:10;;;;;;;40.20;24.40;;;;;;;2.02;100.00;98929.38;105656;1256;67447;-55
2023/03/05 01:36:41;;;;;;;37.10;23.30;;;;;;;2.06;100.00;98929.09;105778;1257;73994;-55
2023/03/05 01:39:09;;;;;;;32.60;22.60;;;;;;;2.07;100.00;98927.64;105757;1255;61748;-55
2023/03/05 01:41:38;;;;;;;37.40;25.30;;;;;;;2.06;100.00;98932.21;105898;1251;60658;-56
2023/03/05 01:44:22;;;;;;;34.40;22.80;;;;;;;2.04;100.00;98936.83;105887;1256;74549;-56
2023/03/05 01:46:51;;;;;;;34.90;22.70;;;;;;;2.02;100.00;98938.57;105656;1253;67537;-55
2023/03/05 01:49:21;;;;;;;37.30;24.80;;;;;;;2.00;100.00;98941.23;105820;1252;73212;-55
2023/03/05 01:51:57;;;;;;;36.10;24.30;;;;;;;1.98;100.00;98945.39;105996;1256;63141;-56
2023/03/05 01:54:32;;;;;;;34.80;23.70;;;;;;;1.96;100.00;98947.40;105626;1251;61744;-55
2023/03/05 01:57:06;;;;;;;34.50;22.00;;;;;;;1.95;100.00;98950.54;105852;1257;74490;-55
2023/03/05 01:59:39;;;;;;;38.50;24.30;;;;;;;1.94;100.00;98956.08;105870;1256;67600;-55
2023/03/05 02:02:08;;;;;;;36.90;24.50;;;;;;;1.94;100.00;98963.10;105749;1255;73179;-55
2023/03/05 02:04:44;;;;;;;35.60;23.40;;;;;;;1.98;100.00;98959.94;105958;1261;61713;-57
2023/03/05 02:07:15;;;;;;;38.30;23.40;;;;;;;1.96;100.00;98961.18;105643;1254;61883;-57
2023/03/05 02:09:43;;;;;;;32.70;21.60;;;;;;;1.93;100.00;98971.54;105718;1254;74710;-55
2023/03/05 02:12:12;;;;;;;37.70;24.40;;;;;;;1.93;100.00;98968.45;105990;1257;68527;-55
2023/03/05 02:14:44;;;;;;;33.70;23.60;;;;;;;1.94;100.00;98974.99;105901;1252;74208;-56
2023/03/05 02:17:13;;;;;;;36.10;24.30;;;;;;;1.96;100.00;98973.80;105947;1251;63206;-58
2023/03/05 02:19:56;;;;;;;38.30;22.30;;;;;;;1.98;100.00;98978.79;105928;1256;60876;-56
2023/03/05 02:22:24;;;;;;;36.20;24.10;;;;;;;2.00;100.00;98974.64;105823;1255;74583;-55
2023/03/05 02:24:53;;;;;;;39.50;25.00;;;;;;;2.03;100.00;98971.73;105885;1255;68656;-56
2023/03/05 02:27:27;;;;;;;34.70;22.60;;;;;;;2.02;100.00;98975.93;106000;1251;73166;-56
2023/03/05 02:30:00;;;;;;;34.70;22.60;;;;;;;2.02;100.00;98978.38;106118;1251;63034;-58
2023/03/05 02:32:29;;;;;;;38.20;24.40;;;;;;;2.04;100.00;98984.14;105900;1256;61568;-55
2023/03/05 02:34:58;;;;;;;34.90;22.40;;;;;;;2.04;100.00;98987.17;105793;1251;75632;-55
2023/03/05 02:37:27;;;;;;;36.50;22.70;;;;;;;2.03;100.00;98982.88;105870;1253;68660;-55
2023/03/05 02:39:56;;;;;;;38.50;24.70;;;;;;;1.99;100.00;98982.10;106067;1251;72289;-56
2023/03/05 02:42:25;;;;;;;34.00;21.70;;;;;;;1.93;100.00;98981.50;106075;1252;61125;-56
2023/03/05 02:44:55;;;;;;;35.70;22.40;;;;;;;1.84;100.00;98985.38;105933;1252;62217;-56
2023/03/05 02:47:26;;;;;;;33.90;23.00;;;;;;;1.79;100.00;98985.23;105804;1252;75722;-55
2023/03/05 02:49:55;;;;;;;38.70;23.80;;;;;;;1.79;100.00;98982.33;106057;1257;68294;-56
2023/03/05 02:52:24;;;;;;;37.70;22.30;;;;;;;1.78;100.00;98981.48;105947;1256;73910;-55
2023/03/05 02:54:52;;;;;;;32.30;21.30;;;;;;;1.79;100.00;98981.96;105987;1257;61726;-57
2023/03/05 02:57:23;;;;;;;38.30;22.90;;;;;;;1.76;100.00;98976.38;105921;1251;62415;-55
2023/03/05 02:59:52;;;;;;;35.90;22.40;;;;;;;1.74;100.00;98975.21;106020;1251;75318;-55
2023/03/05 03:02:21;;;;;;;36.60;22.40;;;;;;;1.75;100.00;98973.23;105867;1255;68524;-55
2023/03/05 03:04:50;;;;;;;38.40;24.50;;;;;;;1.73;100.00;98970.75;106057;1254;72993;-56
2023/03/05 03:07:19;;;;;;;37.80;24.00;;;;;;;1.69;100.00;98970.91;105954;1257;61696;-57
2023/03/05 03:09:49;;;;;;;39.80;23.80;;;;;;;1.71;100.00;98965.92;105956;1256;61188;-56
2023/03/05 03:12:20;;;;;;;35.30;23.00;;;;;;;1.71;100.00;98963.20;105906;1251;74247;-56
2023/03/05 03:14:48;;;;;;;33.70;21.80;;;;;;;1.65;100.00;98971.70;106178;1255;68523;-58
2023/03/05 03:17:17;;;;;;;40.10;23.30;;;;;;;1.58;100.00;98966.04;106287;1251;74131;-56
2023/03/05 03:19:47;;;;;;;36.70;23.60;;;;;;;1.53;100.00;98969.98;106147;1257;62828;-55
2023/03/05 03:22:15;;;;;;;34.70;23.70;;;;;;;1.46;100.00;98976.08;106066;1251;60672;-56
2023/03/05 03:24:46;;;;;;;36.60;23.60;;;;;;;1.39;100.00;98976.27;106024;1255;75373;-58
2023/03/05 03:27:15;;;;;;;40.90;23.50;;;;;;;1.30;100.00;98983.98;105578;1257;68440;-56
2023/03/05 03:29:44;;;;;;;36.40;22.60;;;;;;;1.24;100.00;98993.00;105816;1256;74180;-56
2023/03/05 03:32:13;;;;;;;39.00;23.80;;;;;;;1.25;100.00;98993.39;105855;1251;63055;-54
2023/03/05 03:34:47;;;;;;;42.20;25.00;;;;;;;1.27;100.00;98995.26;105651;1255;60988;-55
2023/03/05 03:37:15;;;;;;;38.40;24.60;;;;;;;1.29;100.00;99002.96;105848;1251;74418;-56
2023/03/05 03:39:44;;;;;;;40.60;24.80;;;;;;;1.31;100.00;99007.66;105680;1257;66970;-55
2023/03/05 03:42:15;;;;;;;37.80;24.10;;;;;;;1.34;100.00;99008.02;105792;1256;74110;-54
2023/03/05 03:44:43;;;;;;;37.80;23.90;;;;;;;1.38;100.00;99010.04;105832;1257;62732;-55
2023/03/05 03:47:11;;;;;;;43.00;25.00;;;;;;;1.41;100.00;99015.09;105749;1255;61099;-55
2023/03/05 03:49:40;;;;;;;37.80;23.10;;;;;;;1.42;100.00;99018.71;105710;1255;73203;-55
2023/03/05 03:52:09;;;;;;;40.00;23.80;;;;;;;1.42;100.00;99020.33;106005;1254;68791;-55
2023/03/05 03:54:39;;;;;;;40.30;24.80;;;;;;;1.41;100.00;99020.87;106029;1257;73184;-55
2023/03/05 03:57:08;;;;;;;38.20;23.40;;;;;;;1.40;100.00;99021.98;105932;1257;60421;-57
2023/03/05 03:59:38;;;;;;;43.60;25.00;;;;;;;1.40;100.00;99021.86;105955;1257;60818;-55
2023/03/05 04:02:06;;;;;;;37.90;24.70;;;;;;;1.40;100.00;99022.66;105892;1255;75364;-55
2023/03/05 04:04:36;;;;;;;38.00;24.10;;;;;;;1.39;100.00;99027.27;106052;1255;68681;-56
2023/03/05 04:07:05;;;;;;;37.70;23.70;;;;;;;1.37;100.00;99026.95;106031;1251;74376;-55
2023/03/05 04:09:37;;;;;;;39.50;23.10;;;;;;;1.35;100.00;99030.53;105831;1251;61710;-55
2023/03/05 04:12:07;;;;;;;36.50;22.00;;;;;;;1.36;100.00;99031.33;105818;1251;60888;-54
2023/03/05 04:14:36;;;;;;;33.20;21.00;;;;;;;1.37;100.00;99035.48;106367;1255;75325;-56
2023/03/05 04:17:04;;;;;;;37.00;22.20;;;;;;;1.38;100.00;99038.60;105597;1251;68389;-56
2023/03/05 04:19:33;;;;;;;38.20;20.10;;;;;;;1.40;100.00;99040.11;105972;1256;72379;-55
2023/03/05 04:22:02;;;;;;;30.60;19.40;;;;;;;1.41;100.00;99042.60;106001;1250;63008;-55
2023/03/05 04:24:31;;;;;;;32.30;19.30;;;;;;;1.42;100.00;99051.77;106447;1252;61713;-57
2023/03/05 04:27:00;;;;;;;32.60;18.90;;;;;;;1.42;100.00;99055.20;106055;1251;73532;-55
2023/03/05 04:29:29;;;;;;;29.30;18.70;;;;;;;1.43;100.00;99055.25;106181;1251;68736;-55
2023/03/05 04:31:57;;;;;;;33.60;19.10;;;;;;;1.44;100.00;99053.70;106115;1256;73185;-55
2023/03/05 04:34:27;;;;;;;28.80;17.80;;;;;;;1.41;100.00;99050.82;105948;1254;61716;-55
2023/03/05 04:36:55;;;;;;;27.80;17.60;;;;;;;1.42;100.00;99053.64;106022;1257;61868;-56
2023/03/05 04:39:24;;;;;;;29.40;18.20;;;;;;;1.42;100.00;99060.79;105902;1257;75418;-55
2023/03/05 04:41:52;;;;;;;29.40;16.90;;;;;;;1.38;100.00;99056.80;105899;1256;68474;-55
2023/03/05 04:44:28;;;;;;;27.90;17.30;;;;;;;1.34;100.00;99060.27;105938;1251;74091;-56
2023/03/05 04:46:57;;;;;;;27.70;16.80;;;;;;;1.32;100.00;99058.08;105843;1252;61158;-55
2023/03/05 04:49:25;;;;;;;29.60;17.90;;;;;;;1.31;100.00;99060.03;105883;1251;61671;-55
2023/03/05 04:51:56;;;;;;;28.20;17.60;;;;;;;1.31;100.00;99060.38;105967;1251;74339;-55
2023/03/05 04:54:24;;;;;;;23.90;15.80;;;;;;;1.29;100.00;99066.05;106110;1256;68596;-55
2023/03/05 04:56:54;;;;;;;23.60;14.40;;;;;;;1.27;100.00;99065.91;105908;1256;73633;-55
2023/03/05 04:59:23;;;;;;;27.00;15.30;;;;;;;1.25;100.00;99071.98;105946;1257;61282;-55
2023/03/05 05:01:54;;;;;;;28.40;16.00;;;;;;;1.18;100.00;99074.53;105913;1251;61584;-55
2023/03/05 05:04:23;;;;;;;25.40;15.40;;;;;;;1.11;100.00;99078.27;106681;1255;75372;-55
2023/03/05 05:06:57;;;;;;;27.10;16.40;;;;;;;1.05;100.00;99081.10;105817;1255;68411;-55
2023/03/05 05:09:25;;;;;;;25.50;16.10;;;;;;;0.99;100.00;99083.59;106299;1257;73502;-54
2023/03/05 05:11:54;;;;;;;28.50;16.20;;;;;;;0.96;100.00;99081.64;105964;1257;60877;-56
2023/03/05 05:14:24;;;;;;;27.70;16.30;;;;;;;0.99;100.00;99086.86;105903;1256;61925;-57
2023/03/05 05:16:52;;;;;;;31.30;17.20;;;;;;;1.12;100.00;99087.13;105959;1257;74551;-55
2023/03/05 05:19:21;;;;;;;25.00;15.00;;;;;;;1.34;100.00;99092.63;105857;1251;67761;-55
2023/03/05 05:21:50;;;;;;;26.40;16.80;;;;;;;1.63;100.00;99099.15;105929;1257;74331;-56
2023/03/05 05:24:19;;;;;;;27.50;15.70;;;;;;;1.90;100.00;99101.67;105840;1257;62758;-58
2023/03/05 05:26:48;;;;;;;25.60;15.60;;;;;;;2.17;100.00;99106.15;105836;1257;61017;-55
2023/03/05 05:29:16;;;;;;;26.10;15.00;;;;;;;2.42;100.00;99109.79;105941;1254;75225;-55
2023/03/05 05:31:45;;;;;;;24.90;15.20;;;;;;;2.65;100.00;99109.57;106011;1255;68615;-56
2023/03/05 05:34:14;;;;;;;24.30;15.10;;;;;;;2.88;100.00;99119.22;106243;1251;74289;-58
2023/03/05 05:36:43;;;;;;;20.60;13.50;;;;;;;3.12;100.00;99117.34;105866;1252;62446;-55
2023/03/05 05:39:11;;;;;;;20.90;13.60;;;;;;;3.28;100.00;99121.46;105910;1257;61842;-56
